Garden City, Virginia
Current Conditions -  °F | °C
As of 5:54 PM on Wednesday 17 Dec 2014 (Local Time) from KROA Reporting Station
Scattered Clouds Scattered Clouds  
Wind Chill: 39°   Ceiling: Unl
Heat Index: 43°   Visibility: 10mi
Dew Point: 26°   Wind: 6mph
Humidity: 51%   Direction: 300°WNW
Pressure: 30.08"   Gusts: NA
Location:  37.224°N, 79.9199°W
Report Text: KROA 172254Z 30005KT 10SM SCT250 06/M03 A3008 RMK AO2 SLP186 T00611033
Loading
Personal Weather Stations






























Interactive Weather Map New forecast layout! Learn more

10-Day Weather Forecast

Advertisements
Track Severe Weather on mobile